Time;durP1;ratioP1;P1;durP2;ratioP2;P2;SDS_P1;SDS_P2;PMS_P1;PMS_P2;Temp;Humidity;BMP_temperature;BMP_pressure;BME280_temperature;BME280_humidity;BME280_pressure;Samples;Min_cycle;Max_cycle;Signal;HPM_P1;HPM_P2
2021/05/15 00:01:07;;;;;;;4.30;2.78;;;10.80;79.50;;;;;;5004936;28;20108;-78
2021/05/15 00:03:33;;;;;;;2.10;1.85;;;10.80;79.10;;;;;;4982395;28;20421;-78
2021/05/15 00:05:59;;;;;;;2.90;2.10;;;10.50;79.20;;;;;;4992895;28;20037;-78
2021/05/15 00:08:25;;;;;;;3.33;2.75;;;10.60;79.90;;;;;;4992879;28;20041;-78
2021/05/15 00:10:51;;;;;;;4.60;2.92;;;10.50;80.00;;;;;;4983646;28;20069;-78
2021/05/15 00:13:17;;;;;;;4.95;3.50;;;10.40;80.60;;;;;;4993473;28;20481;-78
2021/05/15 00:15:42;;;;;;;3.50;3.03;;;10.40;80.30;;;;;;4968289;28;20077;-78
2021/05/15 00:18:08;;;;;;;2.80;2.28;;;10.50;81.50;;;;;;4993260;28;20026;-78
2021/05/15 00:20:33;;;;;;;10.05;3.35;;;10.40;80.20;;;;;;4980241;28;20429;-78
2021/05/15 00:22:59;;;;;;;3.55;2.95;;;10.30;80.30;;;;;;4975949;28;20536;-78
2021/05/15 00:25:24;;;;;;;4.35;3.15;;;10.20;79.80;;;;;;4957826;28;20162;-78
2021/05/15 00:27:50;;;;;;;4.13;3.03;;;10.20;80.20;;;;;;4997391;28;20084;-78
2021/05/15 00:30:16;;;;;;;3.53;3.00;;;10.20;81.10;;;;;;4992724;28;20026;-78
2021/05/15 00:32:41;;;;;;;3.35;2.67;;;10.20;81.50;;;;;;4952218;28;20038;-78
2021/05/15 00:35:07;;;;;;;3.78;2.90;;;10.10;81.70;;;;;;4993422;28;20170;-78
2021/05/15 00:37:33;;;;;;;3.08;2.30;;;10.10;81.30;;;;;;4962988;28;20043;-78
2021/05/15 00:39:59;;;;;;;4.40;2.92;;;10.10;82.50;;;;;;4995834;28;20084;-78
2021/05/15 00:42:24;;;;;;;3.90;3.20;;;9.90;82.60;;;;;;4976365;28;20189;-77
2021/05/15 00:44:50;;;;;;;3.28;2.60;;;10.00;82.00;;;;;;4976185;28;20041;-78
2021/05/15 00:47:20;;;;;;;4.15;2.90;;;10.00;83.80;;;;;;4992039;28;20048;-78
2021/05/15 00:49:46;;;;;;;2.88;2.28;;;10.00;84.50;;;;;;4964116;28;20501;-78
2021/05/15 00:52:12;;;;;;;7.65;3.50;;;10.00;83.10;;;;;;4978298;28;20034;-78
2021/05/15 00:54:39;;;;;;;5.47;2.83;;;9.70;84.40;;;;;;4977004;28;20092;-78
2021/05/15 00:57:06;;;;;;;5.07;4.30;;;9.60;84.90;;;;;;4965559;28;20068;-78
2021/05/15 00:59:31;;;;;;;5.97;4.63;;;9.50;84.80;;;;;;4982006;28;20038;-78
2021/05/15 01:01:57;;;;;;;5.72;4.05;;;9.60;84.30;;;;;;4977706;28;20034;-78
2021/05/15 01:04:23;;;;;;;5.93;4.47;;;9.50;84.60;;;;;;4998866;28;20040;-78
2021/05/15 01:06:49;;;;;;;6.80;4.43;;;9.50;85.00;;;;;;4977334;28;20055;-77
2021/05/15 01:09:14;;;;;;;6.32;5.32;;;9.40;85.60;;;;;;4992264;28;20034;-78
2021/05/15 01:11:40;;;;;;;8.15;5.40;;;9.40;86.20;;;;;;4965496;28;20481;-78
2021/05/15 01:14:05;;;;;;;8.75;6.38;;;9.30;86.80;;;;;;4990891;28;20441;-77
2021/05/15 01:16:34;;;;;;;10.07;6.07;;;9.30;86.70;;;;;;4964396;28;20045;-78
2021/05/15 01:19:00;;;;;;;3.95;3.55;;;9.30;86.10;;;;;;4993417;28;20427;-78
2021/05/15 01:21:25;;;;;;;6.53;3.60;;;9.40;87.00;;;;;;4977926;28;20053;-78
2021/05/15 01:23:51;;;;;;;5.35;3.88;;;9.50;86.40;;;;;;4969178;28;20535;-78
2021/05/15 01:26:18;;;;;;;5.22;3.72;;;9.50;86.00;;;;;;4991771;28;20084;-78
2021/05/15 01:28:44;;;;;;;6.32;5.20;;;9.50;85.70;;;;;;4963282;28;20037;-78
2021/05/15 01:31:10;;;;;;;8.57;6.90;;;9.50;86.80;;;;;;4991635;28;20572;-77
2021/05/15 01:33:36;;;;;;;7.82;6.28;;;9.40;86.20;;;;;;4995667;28;20096;-78
2021/05/15 01:36:02;;;;;;;8.98;6.70;;;9.10;87.10;;;;;;4982482;28;20026;-78
2021/05/15 01:38:27;;;;;;;9.20;6.50;;;9.00;89.20;;;;;;5001872;28;20034;-78
2021/05/15 01:40:53;;;;;;;11.70;7.10;;;9.00;89.00;;;;;;4980751;28;20034;-78
2021/05/15 01:43:19;;;;;;;10.35;7.05;;;9.00;88.40;;;;;;4992901;28;20026;-78
2021/05/15 01:45:45;;;;;;;7.43;6.25;;;9.00;88.90;;;;;;4981243;28;20042;-77
2021/05/15 01:48:17;;;;;;;10.00;6.88;;;9.10;89.20;;;;;;4980184;28;20053;-77
2021/05/15 01:50:45;;;;;;;8.73;7.60;;;9.10;88.30;;;;;;4998208;28;20208;-78
2021/05/15 01:53:10;;;;;;;8.73;7.15;;;9.10;88.50;;;;;;4973671;28;20572;-77
2021/05/15 01:55:36;;;;;;;8.55;7.22;;;9.00;89.30;;;;;;4984819;28;20061;-78
2021/05/15 01:58:01;;;;;;;10.63;7.72;;;9.00;88.90;;;;;;4978454;28;20030;-77
2021/05/15 02:00:28;;;;;;;9.35;6.85;;;9.00;89.80;;;;;;4968572;28;20045;-78
2021/05/15 02:02:53;;;;;;;11.63;7.65;;;9.00;89.80;;;;;;4992535;28;20035;-78
2021/05/15 02:05:19;;;;;;;8.32;7.43;;;9.00;89.20;;;;;;4962206;28;20045;-78
2021/05/15 02:07:44;;;;;;;10.13;7.65;;;8.80;90.10;;;;;;5000444;28;20030;-77
2021/05/15 02:10:10;;;;;;;12.10;7.82;;;8.80;90.80;;;;;;4991766;28;20500;-78
2021/05/15 02:12:36;;;;;;;12.85;7.15;;;8.80;90.40;;;;;;4991141;28;20042;-78
2021/05/15 02:15:02;;;;;;;8.95;7.22;;;8.90;89.80;;;;;;4973855;28;20449;-78
2021/05/15 02:17:27;;;;;;;9.93;8.13;;;9.00;89.70;;;;;;4976983;28;20065;-78
2021/05/15 02:19:53;;;;;;;8.45;6.88;;;9.00;89.60;;;;;;5001763;28;20042;-78
2021/05/15 02:22:18;;;;;;;8.35;6.97;;;8.90;89.20;;;;;;4989295;28;20466;-78
2021/05/15 02:24:44;;;;;;;7.93;7.07;;;8.90;89.60;;;;;;4992500;28;20393;-78
2021/05/15 02:27:09;;;;;;;9.50;7.03;;;8.90;89.50;;;;;;4984675;28;20501;-78
2021/05/15 02:29:35;;;;;;;6.75;4.90;;;8.80;90.10;;;;;;4974730;28;20054;-78
2021/05/15 02:32:01;;;;;;;9.18;7.53;;;8.90;90.00;;;;;;4981922;28;20601;-77
2021/05/15 02:34:26;;;;;;;10.05;8.25;;;8.80;90.30;;;;;;4991596;28;20030;-78
2021/05/15 02:36:52;;;;;;;6.55;5.75;;;8.70;90.80;;;;;;4963534;28;20568;-78
2021/05/15 02:39:18;;;;;;;11.00;7.40;;;8.80;90.10;;;;;;4975193;28;20026;-78
2021/05/15 02:41:43;;;;;;;7.88;7.05;;;8.90;90.10;;;;;;4994514;28;20041;-77
2021/05/15 02:44:09;;;;;;;12.10;7.10;;;8.90;90.10;;;;;;4989893;28;20588;-78
2021/05/15 02:46:34;;;;;;;10.13;8.60;;;8.80;90.00;;;;;;4978176;28;20378;-78
2021/05/15 02:49:00;;;;;;;9.48;7.90;;;8.80;89.90;;;;;;4991243;28;20080;-78
2021/05/15 02:51:26;;;;;;;8.10;6.47;;;8.80;90.30;;;;;;4958372;28;20560;-78
2021/05/15 02:53:53;;;;;;;7.22;5.53;;;8.90;90.30;;;;;;4992414;28;20069;-78
2021/05/15 02:56:18;;;;;;;9.75;6.88;;;9.00;90.20;;;;;;4978070;28;20482;-77
2021/05/15 02:58:44;;;;;;;9.05;8.07;;;9.10;90.20;;;;;;4998796;28;20026;-78
2021/05/15 03:01:09;;;;;;;11.55;8.52;;;9.10;90.00;;;;;;4996060;28;20030;-78
2021/05/15 03:03:35;;;;;;;8.55;6.35;;;9.10;90.00;;;;;;4990614;28;20078;-78
2021/05/15 03:06:00;;;;;;;9.07;7.10;;;9.30;90.30;;;;;;4977829;28;20632;-78
2021/05/15 03:08:26;;;;;;;6.70;5.95;;;9.30;90.30;;;;;;4960804;28;20034;-78
2021/05/15 03:10:51;;;;;;;10.15;7.53;;;9.40;90.10;;;;;;4977860;28;20046;-77
2021/05/15 03:13:17;;;;;;;11.05;7.13;;;9.30;90.90;;;;;;4975726;28;20033;-78
2021/05/15 03:15:42;;;;;;;7.63;6.60;;;9.40;90.20;;;;;;4972246;28;20497;-77
2021/05/15 03:18:08;;;;;;;7.40;5.50;;;9.40;90.10;;;;;;4998412;28;20037;-78
2021/05/15 03:20:34;;;;;;;8.27;6.93;;;9.30;90.00;;;;;;4962956;28;20033;-78
2021/05/15 03:23:00;;;;;;;8.88;6.78;;;9.30;90.20;;;;;;4971977;28;20505;-77
2021/05/15 03:25:25;;;;;;;6.43;5.80;;;9.40;90.90;;;;;;4975827;28;20125;-78
2021/05/15 03:27:51;;;;;;;5.43;4.93;;;9.50;90.60;;;;;;4972615;28;20053;-77
2021/05/15 03:30:17;;;;;;;9.32;5.45;;;9.60;90.70;;;;;;4978050;28;20065;-78
2021/05/15 03:32:42;;;;;;;5.90;4.75;;;9.50;90.80;;;;;;4960722;28;20142;-77
2021/05/15 03:35:12;;;;;;;7.70;5.57;;;9.50;90.40;;;;;;4979170;28;20034;-78
2021/05/15 03:37:38;;;;;;;7.47;6.15;;;9.60;90.40;;;;;;4990269;28;20144;-78
2021/05/15 03:40:04;;;;;;;5.35;3.63;;;9.50;90.30;;;;;;4969548;28;20046;-77
2021/05/15 03:42:30;;;;;;;7.95;4.95;;;9.60;90.40;;;;;;4990001;28;20039;-78
2021/05/15 03:44:55;;;;;;;7.60;4.50;;;9.50;89.90;;;;;;4992185;28;20045;-78
2021/05/15 03:47:21;;;;;;;6.75;5.45;;;9.30;90.10;;;;;;4961754;28;20026;-77
2021/05/15 03:49:46;;;;;;;6.40;4.55;;;9.40;90.20;;;;;;4978108;28;20510;-78
2021/05/15 03:52:12;;;;;;;6.20;4.88;;;9.50;90.10;;;;;;4975343;28;20026;-78
2021/05/15 03:54:38;;;;;;;7.30;5.95;;;9.50;90.20;;;;;;4976575;28;20576;-78
2021/05/15 03:57:04;;;;;;;3.72;3.38;;;9.60;90.20;;;;;;4992048;28;20034;-78
2021/05/15 03:59:31;;;;;;;5.78;4.72;;;9.60;90.10;;;;;;4967035;28;20053;-78
2021/05/15 04:01:56;;;;;;;6.75;4.72;;;9.80;90.30;;;;;;4978468;28;20509;-77
2021/05/15 04:04:22;;;;;;;4.47;4.07;;;9.90;89.90;;;;;;4954959;28;20035;-78
2021/05/15 04:06:47;;;;;;;7.68;5.45;;;10.00;89.90;;;;;;4977905;28;20034;-77
2021/05/15 04:09:13;;;;;;;6.15;5.07;;;9.90;90.70;;;;;;4980161;28;20030;-77
2021/05/15 04:11:39;;;;;;;6.32;4.20;;;9.80;90.80;;;;;;4974033;28;20015;-78
2021/05/15 04:15:03;;;;;;;6.00;4.75;;;9.70;90.30;;;;;;4976781;28;20508;-78
2021/05/15 04:19:26;;;;;;;6.13;4.57;;;9.80;90.20;;;;;;4982619;28;20022;-77
2021/05/15 04:21:52;;;;;;;7.35;5.28;;;9.80;90.60;;;;;;4997160;28;20569;-78
2021/05/15 04:24:17;;;;;;;7.15;4.75;;;9.80;90.40;;;;;;4995637;28;20405;-78
2021/05/15 04:26:43;;;;;;;3.72;3.30;;;9.80;90.80;;;;;;4977889;28;20461;-78
2021/05/15 04:29:08;;;;;;;8.68;4.50;;;10.00;89.60;;;;;;4992276;28;20053;-78
2021/05/15 04:31:34;;;;;;;3.92;2.70;;;10.10;90.40;;;;;;4968500;28;21025;-77
2021/05/15 04:33:59;;;;;;;4.82;3.10;;;10.20;89.70;;;;;;4992581;28;20122;-77
2021/05/15 04:36:25;;;;;;;3.65;3.03;;;10.20;90.40;;;;;;4998009;28;20052;-77
2021/05/15 04:38:52;;;;;;;4.43;3.33;;;10.20;90.10;;;;;;4981027;28;20028;-77
2021/05/15 04:41:19;;;;;;;7.05;3.50;;;10.20;89.80;;;;;;4958100;28;20038;-77
2021/05/15 04:43:45;;;;;;;4.55;3.65;;;10.20;90.20;;;;;;4974869;28;20104;-77
2021/05/15 04:46:10;;;;;;;3.33;2.92;;;10.30;90.00;;;;;;4983889;28;20042;-76
2021/05/15 04:48:38;;;;;;;2.85;2.58;;;10.40;90.00;;;;;;4979973;28;20085;-77
2021/05/15 04:51:03;;;;;;;4.22;3.35;;;10.30;90.00;;;;;;4984069;28;20284;-77
2021/05/15 04:53:30;;;;;;;4.55;4.15;;;10.30;89.90;;;;;;4982057;28;20046;-77
2021/05/15 04:55:55;;;;;;;4.13;3.13;;;10.30;90.30;;;;;;4991494;28;20033;-77
2021/05/15 04:58:21;;;;;;;5.90;3.97;;;10.30;90.20;;;;;;4992818;28;20736;-77
2021/05/15 05:00:47;;;;;;;4.20;3.63;;;10.30;90.10;;;;;;4991755;28;20436;-77
2021/05/15 05:03:16;;;;;;;9.75;4.75;;;10.30;90.40;;;;;;4986821;28;20030;-77
2021/05/15 05:05:41;;;;;;;2.88;2.58;;;10.40;90.60;;;;;;4972853;28;20057;-77
2021/05/15 05:08:07;;;;;;;2.85;2.55;;;10.40;90.50;;;;;;4981076;28;20030;-77
2021/05/15 05:10:32;;;;;;;3.38;2.78;;;10.40;90.20;;;;;;5001110;28;20037;-77
2021/05/15 05:13:04;;;;;;;4.40;2.85;;;10.40;90.70;;;;;;5002674;28;20501;-77
2021/05/15 05:15:30;;;;;;;5.13;3.35;;;10.40;90.40;;;;;;4997556;28;20520;-77
2021/05/15 05:17:56;;;;;;;4.68;3.10;;;10.40;90.20;;;;;;4983408;28;20058;-77
2021/05/15 05:20:21;;;;;;;5.25;4.53;;;10.50;90.60;;;;;;4973719;28;20508;-77
2021/05/15 05:22:47;;;;;;;4.15;3.42;;;10.50;90.80;;;;;;4976131;28;20117;-77
2021/05/15 05:25:13;;;;;;;4.93;3.00;;;10.50;90.60;;;;;;4965017;28;20026;-77
2021/05/15 05:27:46;;;;;;;3.67;2.80;;;10.60;90.90;;;;;;4996941;28;20030;-77
2021/05/15 05:30:13;;;;;;;4.68;2.67;;;10.60;90.60;;;;;;4984960;28;20042;-77
2021/05/15 05:32:38;;;;;;;4.22;3.10;;;10.70;90.50;;;;;;4980375;28;20053;-77
2021/05/15 05:35:04;;;;;;;3.85;2.90;;;10.60;90.70;;;;;;4990800;28;20074;-77
2021/05/15 05:37:30;;;;;;;4.00;3.63;;;10.70;90.30;;;;;;4980538;28;20191;-77
2021/05/15 05:39:55;;;;;;;3.83;3.08;;;10.70;90.40;;;;;;4977911;28;20034;-77
2021/05/15 05:42:21;;;;;;;3.40;2.50;;;10.80;90.20;;;;;;4979743;28;20038;-77
2021/05/15 05:44:47;;;;;;;5.28;4.30;;;10.80;90.00;;;;;;4990296;28;20165;-77
2021/05/15 05:47:13;;;;;;;6.18;4.43;;;10.80;90.60;;;;;;4988353;28;20473;-78
2021/05/15 05:49:38;;;;;;;5.32;4.40;;;10.90;90.60;;;;;;4991361;28;20759;-77
2021/05/15 05:52:04;;;;;;;5.28;2.85;;;10.90;90.50;;;;;;4983883;28;20203;-78
2021/05/15 05:54:30;;;;;;;5.13;4.63;;;11.00;90.60;;;;;;4989927;28;20125;-78
2021/05/15 05:56:55;;;;;;;5.50;2.70;;;11.10;90.70;;;;;;4965470;28;20030;-78
2021/05/15 05:59:21;;;;;;;2.80;2.60;;;11.10;90.40;;;;;;4991754;28;20120;-78
2021/05/15 06:01:46;;;;;;;5.30;3.67;;;11.20;90.40;;;;;;4989054;28;20046;-78
2021/05/15 06:04:12;;;;;;;4.72;2.95;;;11.30;90.20;;;;;;4980135;28;20112;-78
2021/05/15 06:06:37;;;;;;;3.30;2.72;;;11.40;90.40;;;;;;4971596;28;20609;-78
2021/05/15 06:09:06;;;;;;;5.68;2.80;;;11.50;90.10;;;;;;4989082;28;20062;-77
2021/05/15 06:11:31;;;;;;;4.80;3.78;;;11.50;90.60;;;;;;4978075;28;20558;-77
2021/05/15 06:13:57;;;;;;;5.72;4.80;;;11.50;90.90;;;;;;4978508;28;20092;-78
2021/05/15 06:16:22;;;;;;;6.53;4.13;;;11.50;90.70;;;;;;4978809;28;20018;-78
2021/05/15 06:18:48;;;;;;;8.10;4.68;;;11.50;90.80;;;;;;4979521;28;20074;-78
2021/05/15 06:21:13;;;;;;;6.32;5.35;;;11.60;90.90;;;;;;4992406;28;20108;-78
2021/05/15 06:23:39;;;;;;;9.25;5.63;;;11.70;90.40;;;;;;4990552;28;20026;-77
2021/05/15 06:26:08;;;;;;;11.00;7.78;;;11.60;90.40;;;;;;4971972;28;20030;-77
2021/05/15 06:28:37;;;;;;;10.27;6.50;;;11.60;90.70;;;;;;4976089;28;20026;-78
2021/05/15 06:31:04;;;;;;;9.23;7.38;;;11.70;90.50;;;;;;4975730;28;20539;-78
2021/05/15 06:33:29;;;;;;;10.10;7.85;;;11.70;90.40;;;;;;4995069;28;20072;-78
2021/05/15 06:35:55;;;;;;;8.73;7.35;;;11.70;90.90;;;;;;4998457;28;20038;-78
2021/05/15 06:38:20;;;;;;;8.82;6.70;;;11.80;90.70;;;;;;4986533;28;20050;-78
2021/05/15 06:40:46;;;;;;;9.05;7.57;;;11.80;90.70;;;;;;4960567;28;20113;-77
2021/05/15 06:43:11;;;;;;;6.22;5.47;;;11.90;90.80;;;;;;4964200;28;20128;-78
2021/05/15 06:45:37;;;;;;;9.65;6.75;;;11.90;90.40;;;;;;4992821;28;20478;-78
2021/05/15 06:48:03;;;;;;;13.05;8.57;;;12.00;90.30;;;;;;4963536;28;20069;-78
2021/05/15 06:50:29;;;;;;;9.38;6.57;;;11.90;90.70;;;;;;4976284;28;20145;-78
2021/05/15 06:52:54;;;;;;;15.13;10.93;;;12.00;90.50;;;;;;4991637;28;20207;-78
2021/05/15 06:55:20;;;;;;;13.10;9.88;;;12.00;90.70;;;;;;4975073;28;20034;-77
2021/05/15 06:57:46;;;;;;;15.63;9.43;;;12.00;90.50;;;;;;4958541;28;20033;-78
2021/05/15 07:00:12;;;;;;;14.02;11.02;;;12.10;90.50;;;;;;4993888;28;20026;-78
2021/05/15 07:02:37;;;;;;;11.50;7.65;;;12.10;90.70;;;;;;4980586;28;20042;-78
2021/05/15 07:05:03;;;;;;;13.13;9.98;;;12.10;90.40;;;;;;4967735;28;20031;-78
2021/05/15 07:07:29;;;;;;;17.35;10.43;;;12.20;90.30;;;;;;4978910;28;20064;-78
2021/05/15 07:09:54;;;;;;;17.15;8.80;;;12.20;90.10;;;;;;4980885;28;20510;-78
2021/05/15 07:12:22;;;;;;;16.40;9.85;;;12.20;90.30;;;;;;4977271;28;20038;-78
2021/05/15 07:14:48;;;;;;;15.77;9.73;;;12.20;90.30;;;;;;4995432;28;20032;-78
2021/05/15 07:17:13;;;;;;;12.50;9.70;;;12.10;90.20;;;;;;4978003;28;20034;-79
2021/05/15 07:19:39;;;;;;;15.90;12.52;;;12.10;90.10;;;;;;4958761;28;20039;-77
2021/05/15 07:22:05;;;;;;;12.60;9.00;;;12.20;90.00;;;;;;4959676;28;20398;-77
2021/05/15 07:24:31;;;;;;;17.80;12.90;;;12.20;90.00;;;;;;4975001;28;20511;-76
2021/05/15 07:26:56;;;;;;;13.50;10.15;;;12.10;90.50;;;;;;4962261;28;20287;-76
2021/05/15 07:29:22;;;;;;;13.95;10.15;;;12.00;90.80;;;;;;4960991;28;20034;-76
2021/05/15 07:31:47;;;;;;;15.23;11.52;;;11.90;91.10;;;;;;4976661;28;20026;-76
2021/05/15 07:34:13;;;;;;;15.68;10.82;;;11.90;91.30;;;;;;4970705;28;20455;-76
2021/05/15 07:36:38;;;;;;;12.18;9.85;;;11.90;91.00;;;;;;4962075;28;20382;-77
2021/05/15 07:39:04;;;;;;;15.18;11.98;;;11.90;90.80;;;;;;4977268;28;20050;-76
2021/05/15 07:41:30;;;;;;;13.85;10.23;;;12.00;91.20;;;;;;4976233;28;20037;-76
2021/05/15 07:43:55;;;;;;;12.57;9.63;;;11.90;91.20;;;;;;4975893;28;20481;-76
2021/05/15 07:46:21;;;;;;;16.13;11.63;;;12.10;91.50;;;;;;4974909;28;20106;-76
2021/05/15 07:48:47;;;;;;;13.40;9.40;;;12.10;91.20;;;;;;4972147;28;20354;-76
2021/05/15 07:51:22;;;;;;;12.50;9.52;;;12.20;91.70;;;;;;4992889;28;20129;-77
2021/05/15 07:53:49;;;;;;;14.40;10.20;;;12.20;91.50;;;;;;4971113;28;20046;-76
2021/05/15 07:56:14;;;;;;;11.98;10.55;;;12.30;91.40;;;;;;4993802;28;20125;-77
2021/05/15 07:58:40;;;;;;;10.77;8.45;;;12.30;91.50;;;;;;4963668;28;20223;-77
2021/05/15 08:01:05;;;;;;;12.98;9.80;;;12.30;91.60;;;;;;4967551;28;20256;-77
2021/05/15 08:03:31;;;;;;;11.05;7.85;;;12.30;91.50;;;;;;4996064;28;20065;-77
2021/05/15 08:05:56;;;;;;;9.02;7.97;;;12.60;91.30;;;;;;4968462;28;20056;-77
2021/05/15 08:08:22;;;;;;;11.10;8.93;;;12.60;91.10;;;;;;4967010;28;20291;-77
2021/05/15 08:10:47;;;;;;;10.73;9.18;;;12.70;91.10;;;;;;4997198;28;20125;-77
2021/05/15 08:13:13;;;;;;;11.82;10.45;;;12.80;91.10;;;;;;4979832;28;20473;-77
2021/05/15 08:15:39;;;;;;;12.13;10.80;;;12.90;91.10;;;;;;4981774;28;20162;-77
2021/05/15 08:18:05;;;;;;;14.73;11.65;;;12.90;91.40;;;;;;4996294;28;20108;-77
2021/05/15 08:20:31;;;;;;;11.35;10.00;;;12.90;91.00;;;;;;4993700;28;20033;-77
2021/05/15 08:22:56;;;;;;;12.48;10.27;;;13.00;91.20;;;;;;4991010;28;20026;-77
2021/05/15 08:25:22;;;;;;;10.82;7.72;;;13.10;91.20;;;;;;4978918;28;20847;-77
2021/05/15 08:27:52;;;;;;;9.90;7.15;;;13.00;90.60;;;;;;4976623;28;20042;-77
2021/05/15 08:30:18;;;;;;;9.75;8.48;;;13.10;90.60;;;;;;4993443;28;20148;-77
2021/05/15 08:32:45;;;;;;;10.32;9.32;;;13.10;90.80;;;;;;4980947;28;20034;-78
2021/05/15 08:35:11;;;;;;;12.43;8.65;;;13.40;90.90;;;;;;4977903;28;20124;-77
2021/05/15 08:37:37;;;;;;;8.75;7.85;;;13.70;90.30;;;;;;4980572;28;20072;-77
2021/05/15 08:40:03;;;;;;;8.07;7.05;;;13.90;90.10;;;;;;4994371;28;20315;-76
2021/05/15 08:42:29;;;;;;;11.88;8.18;;;13.50;90.30;;;;;;4978672;28;20406;-77
2021/05/15 08:44:54;;;;;;;7.97;6.72;;;13.70;90.70;;;;;;4965550;28;20034;-78
2021/05/15 08:47:20;;;;;;;10.15;8.40;;;13.70;91.20;;;;;;4980478;28;20091;-78
2021/05/15 08:49:46;;;;;;;9.05;7.00;;;14.10;91.00;;;;;;4974886;28;20038;-78
2021/05/15 08:52:12;;;;;;;7.93;6.15;;;14.30;90.20;;;;;;4978381;28;20025;-78
2021/05/15 08:54:38;;;;;;;10.10;7.43;;;14.30;90.30;;;;;;4965232;28;20231;-79
2021/05/15 08:57:03;;;;;;;7.20;6.07;;;14.60;90.50;;;;;;4979404;28;20038;-79
2021/05/15 08:59:29;;;;;;;7.88;6.55;;;14.40;90.80;;;;;;5002429;28;20050;-78
2021/05/15 09:01:56;;;;;;;8.38;7.22;;;14.50;90.70;;;;;;4977695;28;20034;-77
2021/05/15 09:04:22;;;;;;;10.80;7.35;;;14.80;91.40;;;;;;4979774;28;20041;-78
2021/05/15 09:06:48;;;;;;;8.75;6.57;;;15.40;91.00;;;;;;4984879;28;20030;-78
2021/05/15 09:09:13;;;;;;;8.05;5.88;;;15.90;91.10;;;;;;4979988;28;20035;-78
2021/05/15 09:11:39;;;;;;;5.97;4.45;;;15.70;89.10;;;;;;4983057;28;20061;-78
2021/05/15 09:14:14;;;;;;;6.75;5.57;;;15.50;88.60;;;;;;4995620;28;20160;-78
2021/05/15 09:16:49;;;;;;;7.63;5.18;;;15.60;87.80;;;;;;4970173;28;20038;-78
2021/05/15 09:19:18;;;;;;;11.25;7.72;;;15.80;89.00;;;;;;4984014;28;20481;-78
2021/05/15 09:22:00;;;;;;;7.93;6.50;;;16.30;88.20;;;;;;4977725;28;20460;-78
2021/05/15 09:24:33;;;;;;;7.20;5.57;;;16.50;87.10;;;;;;4982489;28;20482;-79
2021/05/15 09:27:01;;;;;;;6.80;5.63;;;16.50;86.50;;;;;;5003147;28;20117;-79
2021/05/15 09:29:26;;;;;;;6.03;5.13;;;16.80;86.30;;;;;;4995478;28;20030;-79
2021/05/15 09:31:53;;;;;;;10.02;5.60;;;17.10;86.20;;;;;;4983484;28;20041;-79
2021/05/15 09:34:21;;;;;;;6.97;5.38;;;17.80;87.40;;;;;;4984376;28;20305;-80
2021/05/15 09:36:47;;;;;;;5.03;4.43;;;18.70;85.30;;;;;;4956855;28;20031;-81
2021/05/15 09:39:16;;;;;;;5.82;4.80;;;18.70;80.50;;;;;;4993922;28;20038;-81
2021/05/15 09:41:45;;;;;;;5.28;4.70;;;18.70;83.30;;;;;;4975486;28;20503;-81
2021/05/15 09:44:13;;;;;;;5.70;5.03;;;19.60;88.20;;;;;;4996698;28;20022;-81
2021/05/15 09:46:40;;;;;;;6.50;5.72;;;19.20;81.50;;;;;;4980399;28;20049;-80
2021/05/15 09:49:06;;;;;;;6.07;5.05;;;18.80;82.90;;;;;;4964174;28;20034;-81
2021/05/15 09:51:32;;;;;;;5.82;5.13;;;18.80;83.60;;;;;;4969789;28;20034;-81
2021/05/15 09:54:20;;;;;;;8.32;5.72;;;18.70;82.90;;;;;;4970238;28;20489;-81
2021/05/15 09:57:18;;;;;;;5.82;5.22;;;18.30;82.10;;;;;;4977446;28;20093;-81
2021/05/15 09:59:45;;;;;;;6.88;3.33;;;19.10;85.80;;;;;;4992591;28;20042;-82
2021/05/15 10:02:12;;;;;;;7.60;6.43;;;18.60;80.80;;;;;;4997674;28;20101;-81
2021/05/15 10:04:39;;;;;;;7.63;5.75;;;18.50;84.60;;;;;;4980893;28;20108;-82
2021/05/15 10:07:14;;;;;;;6.03;5.00;;;18.90;86.30;;;;;;4978684;28;20038;-82
2021/05/15 10:09:39;;;;;;;5.60;4.78;;;18.70;84.10;;;;;;4985393;28;20500;-82
2021/05/15 10:12:05;;;;;;;5.53;4.38;;;18.50;82.90;;;;;;4983168;28;20022;-82
2021/05/15 10:14:31;;;;;;;5.07;4.45;;;19.00;85.20;;;;;;4981460;28;20449;-82
2021/05/15 10:16:57;;;;;;;6.03;4.80;;;19.20;84.90;;;;;;4974360;28;20022;-82
2021/05/15 10:19:23;;;;;;;5.28;4.07;;;19.80;88.00;;;;;;4967390;28;20389;-81
2021/05/15 10:21:48;;;;;;;5.68;4.65;;;20.10;83.40;;;;;;4982189;28;20031;-81
2021/05/15 10:24:17;;;;;;;5.88;3.80;;;20.10;86.20;;;;;;4984795;28;20442;-81
2021/05/15 10:26:42;;;;;;;6.32;4.40;;;20.30;80.50;;;;;;4963763;28;20038;-80
2021/05/15 10:29:08;;;;;;;6.18;4.75;;;20.20;82.40;;;;;;5004256;28;20037;-81
2021/05/15 10:31:41;;;;;;;6.90;4.97;;;20.60;84.20;;;;;;4995431;28;20067;-81
2021/05/15 10:34:07;;;;;;;6.25;5.50;;;21.30;84.30;;;;;;4970562;28;20260;-82
2021/05/15 10:36:43;;;;;;;5.78;5.20;;;21.80;83.30;;;;;;4966545;28;20449;-81
2021/05/15 10:39:08;;;;;;;;;;;22.10;82.80;;;;;;4982344;28;20045;-80
2021/05/15 10:41:43;;;;;;;4.17;3.77;;;22.40;81.70;;;;;;4991337;28;19914;-80
2021/05/15 10:44:12;;;;;;;4.43;4.00;;;22.60;81.20;;;;;;4967394;28;20081;-82
2021/05/15 10:46:45;;;;;;;3.95;3.20;;;22.70;80.00;;;;;;4977670;28;20038;-82
2021/05/15 10:49:16;;;;;;;4.05;3.75;;;22.70;78.80;;;;;;4966704;28;20040;-83
2021/05/15 10:51:55;;;;;;;3.25;2.65;;;22.50;77.80;;;;;;4985481;28;20300;-82
2021/05/15 10:54:53;;;;;;;4.03;3.63;;;22.40;76.00;;;;;;4963325;28;20033;-82
2021/05/15 10:57:22;;;;;;;5.13;3.75;;;22.50;77.30;;;;;;4993847;28;20029;-82
2021/05/15 10:59:56;;;;;;;3.40;3.05;;;22.40;75.40;;;;;;4978896;28;20034;-82
2021/05/15 11:02:21;;;;;;;3.72;3.42;;;22.20;74.80;;;;;;4984404;28;20037;-83
2021/05/15 11:04:51;;;;;;;3.60;3.25;;;22.10;76.50;;;;;;4962464;28;20419;-82
2021/05/15 11:07:19;;;;;;;3.58;3.22;;;22.20;75.40;;;;;;4951499;28;20489;-82
2021/05/15 11:09:55;;;;;;;5.43;3.60;;;22.10;75.80;;;;;;4996220;28;20034;-82
2021/05/15 11:12:21;;;;;;;4.18;3.35;;;21.90;73.30;;;;;;4979989;28;20041;-82
2021/05/15 11:14:50;;;;;;;3.58;3.28;;;21.80;71.20;;;;;;4614102;28;10000505;-81
2021/05/15 11:17:22;;;;;;;2.30;2.10;;;21.80;76.10;;;;;;4967510;28;20598;-82
2021/05/15 11:19:54;;;;;;;4.90;1.40;;;20.30;67.80;;;;;;4976903;28;20579;-82
2021/05/15 11:22:21;;;;;;;1.17;1.08;;;19.30;73.20;;;;;;4991634;28;20476;-79
2021/05/15 11:24:54;;;;;;;2.22;1.55;;;18.80;75.10;;;;;;4960487;28;20030;-80
2021/05/15 11:27:20;;;;;;;2.22;1.67;;;18.60;75.70;;;;;;4994969;28;20096;-80
2021/05/15 11:29:47;;;;;;;2.03;1.50;;;18.10;76.90;;;;;;4957603;28;20045;-79
2021/05/15 11:32:14;;;;;;;2.65;1.90;;;17.70;77.70;;;;;;4965086;28;20034;-81
2021/05/15 11:34:40;;;;;;;1.95;1.75;;;17.10;79.10;;;;;;4986861;28;20087;-81
2021/05/15 11:37:06;;;;;;;2.67;1.27;;;17.00;79.00;;;;;;4965417;28;20486;-81
2021/05/15 11:39:32;;;;;;;2.33;1.42;;;16.50;79.80;;;;;;4966187;28;20034;-82
2021/05/15 11:42:02;;;;;;;2.10;1.35;;;16.30;81.10;;;;;;4970213;28;20441;-81
2021/05/15 11:44:27;;;;;;;2.65;1.75;;;16.30;80.60;;;;;;4975462;28;20037;-82
2021/05/15 11:46:54;;;;;;;1.60;1.30;;;16.10;80.80;;;;;;4997528;28;20033;-81
2021/05/15 11:49:27;;;;;;;1.92;1.45;;;16.00;80.50;;;;;;4972455;28;20057;-80
2021/05/15 11:51:58;;;;;;;2.60;1.48;;;16.00;80.70;;;;;;4983997;28;20050;-79
2021/05/15 11:54:24;;;;;;;3.17;1.27;;;15.80;80.40;;;;;;4983931;28;20030;-77
2021/05/15 11:56:52;;;;;;;2.08;1.35;;;15.70;81.20;;;;;;4958211;28;20030;-78
2021/05/15 11:59:18;;;;;;;1.75;1.42;;;15.60;80.30;;;;;;4982104;28;20106;-78
2021/05/15 12:01:44;;;;;;;2.50;1.30;;;15.70;80.30;;;;;;4638798;28;10000089;-77
2021/05/15 12:04:16;;;;;;;3.70;1.48;;;15.70;81.20;;;;;;4607262;28;10000232;-77
2021/05/15 12:06:42;;;;;;;2.28;1.25;;;15.60;81.10;;;;;;4979250;28;20606;-78
2021/05/15 12:09:14;;;;;;;3.85;1.77;;;15.90;81.50;;;;;;4962476;28;20128;-78
2021/05/15 12:11:40;;;;;;;3.72;1.67;;;16.20;82.30;;;;;;4960348;28;20148;-78
2021/05/15 12:14:05;;;;;;;1.80;0.95;;;16.50;82.50;;;;;;4982442;28;20604;-78
2021/05/15 12:16:33;;;;;;;1.70;1.27;;;16.60;81.10;;;;;;4965922;28;20545;-78
2021/05/15 12:18:59;;;;;;;2.25;0.98;;;16.70;81.80;;;;;;4997678;28;20478;-78
2021/05/15 12:21:25;;;;;;;2.70;0.95;;;17.00;80.90;;;;;;4986566;28;20117;-77
2021/05/15 12:23:51;;;;;;;1.60;1.50;;;16.80;81.50;;;;;;5002870;28;20034;-78
2021/05/15 12:26:17;;;;;;;3.03;1.30;;;17.20;82.20;;;;;;4983137;28;20033;-77
2021/05/15 12:28:44;;;;;;;2.20;1.50;;;17.60;82.80;;;;;;4983154;28;20054;-78
2021/05/15 12:31:32;;;;;;;1.60;1.00;;;17.90;81.80;;;;;;4973414;28;20408;-78
2021/05/15 12:33:58;;;;;;;1.00;0.90;;;18.30;79.80;;;;;;4990176;28;20030;-78
2021/05/15 12:36:32;;;;;;;2.58;1.67;;;18.70;81.90;;;;;;4986616;28;20042;-79
2021/05/15 12:38:58;;;;;;;1.48;1.38;;;18.90;80.40;;;;;;5000873;28;20038;-79
2021/05/15 12:41:24;;;;;;;1.67;1.58;;;19.00;80.30;;;;;;4987435;28;20041;-78
2021/05/15 12:44:07;;;;;;;5.25;2.10;;;19.20;82.40;;;;;;4981002;28;20133;-79
2021/05/15 12:46:34;;;;;;;2.53;2.30;;;19.40;82.00;;;;;;4987105;28;20107;-79
2021/05/15 12:49:01;;;;;;;2.58;1.88;;;19.80;81.10;;;;;;4995796;28;20033;-78